DLH24 EDDF-EDDH
Flight info
| Callsign | DLH24 |
|---|---|
| Flight time | 0h 52m |
| Altitude | 35000 |
| Route | MARUN3W/25C MARUN Y150 TOLGI DCT SAS/N0447F340 P605 NOLGO NOLGO3P |
| Aircraft | A320/M-SDE3FGHIRWY/LB1 |
Departure
| Time | 2026-04-17 12:57 |
|---|---|
| Airport | Frankfurt Main Airport (EDDF) |
Arrival
| Time | 2026-04-17 13:49 |
|---|---|
| Airport | Hamburg Helmut Schmidt Airport (EDDH) |
| Time | Latitude | Longitude | Altitude | Speed | Heading |
|---|---|---|---|---|---|
| 2026-04-17 12:32 | 50.03845 | 8.54693 | 349 ft | 0 kts | 160° |
| 2026-04-17 12:47 | 50.03843 | 8.54695 | 349 ft | 1 kts | 160° |
| 2026-04-17 12:47 | 50.03826 | 8.54704 | 352 ft | 4 kts | 160° |
| 2026-04-17 12:48 | 50.03797 | 8.54721 | 349 ft | 5 kts | 160° |
| 2026-04-17 12:48 | 50.03775 | 8.54740 | 353 ft | 5 kts | 136° |
| 2026-04-17 12:48 | 50.03772 | 8.54792 | 350 ft | 5 kts | 76° |
| 2026-04-17 12:48 | 50.03781 | 8.54832 | 357 ft | 3 kts | 68° |
| 2026-04-17 12:49 | 50.03785 | 8.54852 | 350 ft | 2 kts | 71° |
| 2026-04-17 12:49 | 50.03796 | 8.54908 | 357 ft | 8 kts | 73° |
| 2026-04-17 12:49 | 50.03815 | 8.54981 | 356 ft | 6 kts | 66° |
| 2026-04-17 12:49 | 50.03836 | 8.55063 | 349 ft | 10 kts | 70° |
| 2026-04-17 12:50 | 50.03865 | 8.55182 | 350 ft | 13 kts | 69° |
| 2026-04-17 12:50 | 50.03896 | 8.55314 | 354 ft | 14 kts | 69° |
| 2026-04-17 12:50 | 50.03931 | 8.55458 | 356 ft | 15 kts | 70° |
| 2026-04-17 12:50 | 50.03962 | 8.55602 | 351 ft | 15 kts | 63° |
| 2026-04-17 12:51 | 50.04003 | 8.55759 | 354 ft | 16 kts | 70° |
| 2026-04-17 12:51 | 50.04044 | 8.55931 | 352 ft | 18 kts | 69° |
| 2026-04-17 12:51 | 50.04088 | 8.56115 | 355 ft | 19 kts | 70° |
| 2026-04-17 12:51 | 50.04135 | 8.56313 | 355 ft | 20 kts | 70° |
| 2026-04-17 12:52 | 50.04185 | 8.56521 | 361 ft | 21 kts | 70° |
| 2026-04-17 12:52 | 50.04236 | 8.56735 | 360 ft | 21 kts | 70° |
| 2026-04-17 12:52 | 50.04287 | 8.56950 | 362 ft | 22 kts | 70° |
| 2026-04-17 12:52 | 50.04341 | 8.57177 | 365 ft | 23 kts | 69° |
| 2026-04-17 12:53 | 50.04399 | 8.57417 | 364 ft | 24 kts | 70° |
| 2026-04-17 12:53 | 50.04457 | 8.57659 | 370 ft | 24 kts | 69° |
| 2026-04-17 12:53 | 50.04516 | 8.57909 | 367 ft | 25 kts | 70° |
| 2026-04-17 12:53 | 50.04580 | 8.58173 | 365 ft | 27 kts | 70° |
| 2026-04-17 12:54 | 50.04631 | 8.58387 | 372 ft | 18 kts | 69° |
| 2026-04-17 12:54 | 50.04646 | 8.58549 | 369 ft | 11 kts | 127° |
| 2026-04-17 12:54 | 50.04598 | 8.58586 | 373 ft | 1 kts | 161° |
| 2026-04-17 12:55 | 50.04572 | 8.58601 | 370 ft | 7 kts | 159° |
| 2026-04-17 12:55 | 50.04528 | 8.58626 | 371 ft | 6 kts | 159° |
| 2026-04-17 12:55 | 50.04493 | 8.58616 | 371 ft | 6 kts | 224° |
| 2026-04-17 12:56 | 50.04479 | 8.58555 | 370 ft | 6 kts | 250° |
| 2026-04-17 12:56 | 50.04472 | 8.58525 | 370 ft | 0 kts | 250° |
| 2026-04-17 12:56 | 50.04461 | 8.58476 | 370 ft | 24 kts | 250° |
| 2026-04-17 12:56 | 50.04302 | 8.57813 | 367 ft | 102 kts | 249° |
| 2026-04-17 12:57 | 50.03991 | 8.56504 | 357 ft | 157 kts | 250° |
| 2026-04-17 12:57 | 50.03579 | 8.54814 | 805 ft | 170 kts | 250° |
| 2026-04-17 12:57 | 50.03157 | 8.53087 | 1597 ft | 170 kts | 249° |
| 2026-04-17 12:57 | 50.02723 | 8.51287 | 2111 ft | 187 kts | 248° |
| 2026-04-17 12:58 | 50.01996 | 8.49508 | 2582 ft | 201 kts | 225° |
| 2026-04-17 12:58 | 50.00828 | 8.48301 | 3253 ft | 205 kts | 201° |
| 2026-04-17 12:58 | 49.99431 | 8.47841 | 3951 ft | 206 kts | 189° |
| 2026-04-17 12:58 | 49.98007 | 8.47523 | 4646 ft | 208 kts | 189° |
| 2026-04-17 12:59 | 49.96570 | 8.47203 | 5315 ft | 210 kts | 189° |
| 2026-04-17 12:59 | 49.95135 | 8.46647 | 5845 ft | 219 kts | 197° |
| 2026-04-17 12:59 | 49.93611 | 8.45946 | 6232 ft | 239 kts | 197° |
| 2026-04-17 12:59 | 49.92065 | 8.44913 | 6955 ft | 247 kts | 216° |
| 2026-04-17 13:00 | 49.90954 | 8.42866 | 7787 ft | 253 kts | 245° |
| 2026-04-17 13:00 | 49.90621 | 8.40190 | 8679 ft | 258 kts | 275° |
| 2026-04-17 13:00 | 49.91191 | 8.37550 | 9561 ft | 264 kts | 305° |
| 2026-04-17 13:00 | 49.92559 | 8.35660 | 10430 ft | 269 kts | 332° |
| 2026-04-17 13:01 | 49.94315 | 8.34469 | 10958 ft | 286 kts | 336° |
| 2026-04-17 13:01 | 49.96230 | 8.33232 | 11261 ft | 310 kts | 336° |
| 2026-04-17 13:01 | 49.98304 | 8.31900 | 11527 ft | 334 kts | 337° |
| 2026-04-17 13:01 | 50.00512 | 8.30480 | 11942 ft | 350 kts | 336° |
| 2026-04-17 13:02 | 50.02854 | 8.29337 | 12639 ft | 356 kts | 348° |
| 2026-04-17 13:02 | 50.05333 | 8.28978 | 13393 ft | 362 kts | 360° |
| 2026-04-17 13:02 | 50.07850 | 8.29440 | 14145 ft | 367 kts | 12° |
| 2026-04-17 13:02 | 50.10309 | 8.30618 | 14803 ft | 372 kts | 17° |
| 2026-04-17 13:03 | 50.12776 | 8.31903 | 15462 ft | 376 kts | 17° |
| 2026-04-17 13:03 | 50.15271 | 8.33213 | 16099 ft | 380 kts | 17° |
| 2026-04-17 13:03 | 50.17786 | 8.34533 | 16743 ft | 384 kts | 17° |
| 2026-04-17 13:03 | 50.20334 | 8.35873 | 17374 ft | 388 kts | 17° |
| 2026-04-17 13:04 | 50.22896 | 8.37219 | 17997 ft | 392 kts | 17° |
| 2026-04-17 13:04 | 50.25499 | 8.38588 | 18598 ft | 396 kts | 17° |
| 2026-04-17 13:04 | 50.28117 | 8.39966 | 19131 ft | 399 kts | 17° |
| 2026-04-17 13:04 | 50.30759 | 8.41367 | 19684 ft | 402 kts | 17° |
| 2026-04-17 13:05 | 50.33410 | 8.42801 | 20229 ft | 404 kts | 17° |
| 2026-04-17 13:05 | 50.36074 | 8.44265 | 20782 ft | 407 kts | 17° |
| 2026-04-17 13:05 | 50.38755 | 8.45745 | 21318 ft | 410 kts | 17° |
| 2026-04-17 13:05 | 50.41450 | 8.47231 | 21841 ft | 412 kts | 17° |
| 2026-04-17 13:06 | 50.44169 | 8.48731 | 22348 ft | 415 kts | 17° |
| 2026-04-17 13:06 | 50.46902 | 8.50234 | 22861 ft | 418 kts | 17° |
| 2026-04-17 13:06 | 50.49665 | 8.51695 | 23368 ft | 420 kts | 15° |
| 2026-04-17 13:06 | 50.52462 | 8.53062 | 23847 ft | 422 kts | 14° |
| 2026-04-17 13:07 | 50.55285 | 8.54376 | 24259 ft | 424 kts | 13° |
| 2026-04-17 13:07 | 50.58123 | 8.55682 | 24678 ft | 426 kts | 13° |
| 2026-04-17 13:07 | 50.60971 | 8.57003 | 25090 ft | 428 kts | 13° |
| 2026-04-17 13:07 | 50.63838 | 8.58351 | 25495 ft | 430 kts | 13° |
| 2026-04-17 13:08 | 50.66704 | 8.59715 | 25903 ft | 432 kts | 14° |
| 2026-04-17 13:08 | 50.69580 | 8.61100 | 26312 ft | 433 kts | 14° |
| 2026-04-17 13:08 | 50.72465 | 8.62498 | 26713 ft | 435 kts | 14° |
| 2026-04-17 13:08 | 50.75370 | 8.63909 | 27101 ft | 437 kts | 14° |
| 2026-04-17 13:09 | 50.78253 | 8.65481 | 27473 ft | 441 kts | 20° |
| 2026-04-17 13:09 | 50.80973 | 8.67766 | 27832 ft | 448 kts | 30° |
| 2026-04-17 13:09 | 50.83462 | 8.70785 | 28182 ft | 454 kts | 39° |
| 2026-04-17 13:09 | 50.85626 | 8.74471 | 28525 ft | 460 kts | 49° |
| 2026-04-17 13:10 | 50.87572 | 8.78511 | 28865 ft | 463 kts | 49° |
| 2026-04-17 13:10 | 50.89520 | 8.82575 | 29194 ft | 464 kts | 49° |
| 2026-04-17 13:10 | 50.91474 | 8.86660 | 29522 ft | 466 kts | 49° |
| 2026-04-17 13:10 | 50.93439 | 8.90772 | 29839 ft | 468 kts | 49° |
| 2026-04-17 13:11 | 50.95403 | 8.94895 | 30191 ft | 469 kts | 49° |
| 2026-04-17 13:11 | 50.97362 | 8.99022 | 30597 ft | 468 kts | 49° |
| 2026-04-17 13:11 | 50.99315 | 9.03145 | 31025 ft | 466 kts | 49° |
| 2026-04-17 13:11 | 51.01261 | 9.07256 | 31411 ft | 465 kts | 49° |
| 2026-04-17 13:12 | 51.03206 | 9.11365 | 31809 ft | 464 kts | 49° |
| 2026-04-17 13:12 | 51.07085 | 9.19538 | 32562 ft | 461 kts | 47° |
| 2026-04-17 13:12 | 51.09252 | 9.23239 | 32928 ft | 454 kts | 37° |
| 2026-04-17 13:13 | 51.11732 | 9.26281 | 33316 ft | 447 kts | 27° |
| 2026-04-17 13:13 | 51.14437 | 9.28622 | 33700 ft | 439 kts | 19° |
| 2026-04-17 13:13 | 51.17291 | 9.30248 | 34095 ft | 432 kts | 10° |
| 2026-04-17 13:13 | 51.20206 | 9.31295 | 34445 ft | 429 kts | 7° |
| 2026-04-17 13:14 | 51.23121 | 9.32301 | 34807 ft | 428 kts | 7° |
| 2026-04-17 13:14 | 51.26024 | 9.33310 | 35113 ft | 428 kts | 7° |
| 2026-04-17 13:14 | 51.31836 | 9.35329 | 35208 ft | 427 kts | 7° |
| 2026-04-17 13:15 | 51.37643 | 9.37347 | 35201 ft | 427 kts | 7° |
| 2026-04-17 13:15 | 51.43454 | 9.39371 | 35228 ft | 427 kts | 7° |
| 2026-04-17 13:16 | 51.49261 | 9.41413 | 35220 ft | 427 kts | 7° |
| 2026-04-17 13:16 | 51.55069 | 9.43465 | 35218 ft | 428 kts | 7° |
| 2026-04-17 13:17 | 51.60884 | 9.45510 | 35216 ft | 428 kts | 7° |
| 2026-04-17 13:17 | 51.66696 | 9.47541 | 35230 ft | 428 kts | 7° |
| 2026-04-17 13:18 | 51.72510 | 9.49582 | 35217 ft | 428 kts | 7° |
| 2026-04-17 13:18 | 51.78323 | 9.51643 | 35209 ft | 428 kts | 7° |
| 2026-04-17 13:19 | 51.84071 | 9.54273 | 35212 ft | 435 kts | 19° |
| 2026-04-17 13:19 | 51.89501 | 9.58711 | 35226 ft | 438 kts | 21° |
| 2026-04-17 13:20 | 51.94886 | 9.63185 | 35220 ft | 438 kts | 21° |
| 2026-04-17 13:20 | 52.00315 | 9.67690 | 35217 ft | 438 kts | 21° |
| 2026-04-17 13:21 | 52.05741 | 9.72205 | 35217 ft | 438 kts | 21° |
| 2026-04-17 13:21 | 52.11166 | 9.76739 | 35220 ft | 439 kts | 21° |
| 2026-04-17 13:22 | 52.16634 | 9.81315 | 35234 ft | 439 kts | 21° |
| 2026-04-17 13:22 | 52.22037 | 9.85850 | 35229 ft | 440 kts | 21° |
| 2026-04-17 13:23 | 52.27674 | 9.89563 | 35224 ft | 430 kts | 9° |
| 2026-04-17 13:23 | 52.33420 | 9.92072 | 35221 ft | 430 kts | 9° |
| 2026-04-17 13:24 | 52.39202 | 9.94612 | 35233 ft | 431 kts | 9° |
| 2026-04-17 13:24 | 52.42097 | 9.95894 | 34929 ft | 432 kts | 9° |
| 2026-04-17 13:24 | 52.45017 | 9.97185 | 33951 ft | 438 kts | 9° |
| 2026-04-17 13:25 | 52.47964 | 9.98489 | 33302 ft | 435 kts | 9° |
| 2026-04-17 13:25 | 52.50832 | 9.99770 | 33163 ft | 420 kts | 9° |
| 2026-04-17 13:25 | 52.53605 | 10.01015 | 33008 ft | 406 kts | 9° |
| 2026-04-17 13:25 | 52.56300 | 10.02222 | 32663 ft | 399 kts | 9° |
| 2026-04-17 13:26 | 52.58962 | 10.03409 | 32199 ft | 394 kts | 9° |
| 2026-04-17 13:26 | 52.61600 | 10.04583 | 31704 ft | 391 kts | 9° |
| 2026-04-17 13:26 | 52.64221 | 10.05746 | 31203 ft | 389 kts | 9° |
| 2026-04-17 13:26 | 52.66815 | 10.06904 | 30556 ft | 384 kts | 9° |
| 2026-04-17 13:27 | 52.69379 | 10.08049 | 29740 ft | 381 kts | 10° |
| 2026-04-17 13:27 | 52.71922 | 10.09184 | 28936 ft | 377 kts | 10° |
| 2026-04-17 13:27 | 52.74439 | 10.10311 | 28167 ft | 373 kts | 10° |
| 2026-04-17 13:27 | 52.76940 | 10.11337 | 27426 ft | 367 kts | 5° |
| 2026-04-17 13:28 | 52.79445 | 10.11831 | 26705 ft | 359 kts | 358° |
| 2026-04-17 13:28 | 52.81930 | 10.11917 | 25983 ft | 355 kts | 356° |
| 2026-04-17 13:28 | 52.84393 | 10.11992 | 25277 ft | 354 kts | 356° |
| 2026-04-17 13:28 | 52.86845 | 10.12073 | 24575 ft | 352 kts | 357° |
| 2026-04-17 13:29 | 52.88497 | 10.12130 | 24116 ft | 351 kts | 357° |
| 2026-04-17 13:29 | 52.91714 | 10.12242 | 23150 ft | 348 kts | 357° |
| 2026-04-17 13:29 | 52.94126 | 10.12326 | 22433 ft | 345 kts | 357° |
| 2026-04-17 13:29 | 52.96519 | 10.12407 | 21760 ft | 343 kts | 357° |
| 2026-04-17 13:30 | 52.98894 | 10.12490 | 21102 ft | 340 kts | 357° |
| 2026-04-17 13:30 | 53.01252 | 10.12569 | 20451 ft | 337 kts | 357° |
| 2026-04-17 13:30 | 53.02834 | 10.12620 | 20021 ft | 336 kts | 357° |
| 2026-04-17 13:30 | 53.05914 | 10.12716 | 19204 ft | 333 kts | 357° |
| 2026-04-17 13:31 | 53.07480 | 10.12763 | 18804 ft | 332 kts | 357° |
| 2026-04-17 13:31 | 53.10524 | 10.12857 | 17945 ft | 329 kts | 358° |
| 2026-04-17 13:31 | 53.12808 | 10.12933 | 17323 ft | 327 kts | 358° |
| 2026-04-17 13:31 | 53.15073 | 10.13008 | 16726 ft | 324 kts | 358° |
| 2026-04-17 13:32 | 53.16591 | 10.13057 | 16357 ft | 322 kts | 358° |
| 2026-04-17 13:32 | 53.18823 | 10.13130 | 15810 ft | 319 kts | 358° |
| 2026-04-17 13:32 | 53.21029 | 10.13206 | 15359 ft | 314 kts | 358° |
| 2026-04-17 13:32 | 53.23198 | 10.13283 | 14919 ft | 310 kts | 358° |
| 2026-04-17 13:33 | 53.25353 | 10.13360 | 14466 ft | 306 kts | 358° |
| 2026-04-17 13:33 | 53.27452 | 10.13433 | 14018 ft | 303 kts | 358° |
| 2026-04-17 13:33 | 53.29552 | 10.13504 | 13525 ft | 300 kts | 359° |
| 2026-04-17 13:33 | 53.31593 | 10.13573 | 13080 ft | 295 kts | 359° |
| 2026-04-17 13:34 | 53.33636 | 10.13642 | 12610 ft | 292 kts | 359° |
| 2026-04-17 13:34 | 53.35676 | 10.13710 | 12155 ft | 288 kts | 359° |
| 2026-04-17 13:34 | 53.37649 | 10.13773 | 11697 ft | 285 kts | 359° |
| 2026-04-17 13:34 | 53.39650 | 10.13821 | 11235 ft | 282 kts | 356° |
| 2026-04-17 13:35 | 53.41605 | 10.13586 | 11029 ft | 288 kts | 353° |
| 2026-04-17 13:35 | 53.43628 | 10.13319 | 10850 ft | 294 kts | 354° |
| 2026-04-17 13:35 | 53.45674 | 10.13058 | 10662 ft | 295 kts | 354° |
| 2026-04-17 13:35 | 53.47722 | 10.12800 | 10464 ft | 295 kts | 354° |
| 2026-04-17 13:36 | 53.49760 | 10.12547 | 10277 ft | 294 kts | 354° |
| 2026-04-17 13:36 | 53.51769 | 10.12296 | 10072 ft | 293 kts | 354° |
| 2026-04-17 13:36 | 53.53816 | 10.12036 | 9874 ft | 287 kts | 354° |
| 2026-04-17 13:36 | 53.55745 | 10.11805 | 9738 ft | 277 kts | 356° |
| 2026-04-17 13:37 | 53.57620 | 10.12211 | 9601 ft | 269 kts | 17° |
| 2026-04-17 13:37 | 53.59260 | 10.13622 | 9431 ft | 263 kts | 38° |
| 2026-04-17 13:37 | 53.60538 | 10.15816 | 9342 ft | 263 kts | 50° |
| 2026-04-17 13:37 | 53.61707 | 10.18176 | 9192 ft | 262 kts | 50° |
| 2026-04-17 13:38 | 53.62875 | 10.20530 | 9031 ft | 262 kts | 50° |
| 2026-04-17 13:38 | 53.64042 | 10.22880 | 8888 ft | 261 kts | 50° |
| 2026-04-17 13:38 | 53.65212 | 10.25232 | 8723 ft | 261 kts | 50° |
| 2026-04-17 13:38 | 53.66373 | 10.27574 | 8570 ft | 260 kts | 50° |
| 2026-04-17 13:39 | 53.67532 | 10.29915 | 8412 ft | 260 kts | 50° |
| 2026-04-17 13:39 | 53.68686 | 10.32249 | 8268 ft | 259 kts | 50° |
| 2026-04-17 13:39 | 53.69837 | 10.34583 | 8117 ft | 258 kts | 50° |
| 2026-04-17 13:39 | 53.70985 | 10.36906 | 7966 ft | 258 kts | 50° |
| 2026-04-17 13:40 | 53.72130 | 10.39226 | 7823 ft | 257 kts | 50° |
| 2026-04-17 13:40 | 53.73271 | 10.41543 | 7667 ft | 256 kts | 50° |
| 2026-04-17 13:40 | 53.74409 | 10.43857 | 7519 ft | 256 kts | 50° |
| 2026-04-17 13:40 | 53.75543 | 10.46170 | 7371 ft | 255 kts | 50° |
| 2026-04-17 13:41 | 53.76673 | 10.48472 | 7217 ft | 254 kts | 50° |
| 2026-04-17 13:41 | 53.77797 | 10.50765 | 7078 ft | 253 kts | 50° |
| 2026-04-17 13:41 | 53.78942 | 10.53023 | 6932 ft | 252 kts | 42° |
| 2026-04-17 13:41 | 53.80410 | 10.54569 | 6813 ft | 249 kts | 15° |
| 2026-04-17 13:42 | 53.82101 | 10.54894 | 6692 ft | 243 kts | 349° |
| 2026-04-17 13:42 | 53.83674 | 10.53998 | 6562 ft | 237 kts | 324° |
| 2026-04-17 13:42 | 53.84857 | 10.52123 | 6431 ft | 232 kts | 301° |
| 2026-04-17 13:42 | 53.85474 | 10.49707 | 6275 ft | 219 kts | 278° |
| 2026-04-17 13:43 | 53.85496 | 10.47178 | 5940 ft | 216 kts | 256° |
| 2026-04-17 13:43 | 53.84949 | 10.44848 | 5641 ft | 212 kts | 237° |
| 2026-04-17 13:43 | 53.84230 | 10.42698 | 5397 ft | 208 kts | 240° |
| 2026-04-17 13:43 | 53.83452 | 10.40666 | 5162 ft | 205 kts | 233° |
| 2026-04-17 13:44 | 53.82576 | 10.38761 | 4956 ft | 205 kts | 230° |
| 2026-04-17 13:44 | 53.81677 | 10.36894 | 4755 ft | 203 kts | 230° |
| 2026-04-17 13:44 | 53.80764 | 10.35014 | 4694 ft | 210 kts | 230° |
| 2026-04-17 13:44 | 53.79833 | 10.33099 | 4596 ft | 212 kts | 229° |
| 2026-04-17 13:45 | 53.78895 | 10.31174 | 4494 ft | 212 kts | 230° |
| 2026-04-17 13:45 | 53.77973 | 10.29280 | 4402 ft | 203 kts | 229° |
| 2026-04-17 13:45 | 53.77070 | 10.27429 | 4225 ft | 211 kts | 229° |
| 2026-04-17 13:45 | 53.76135 | 10.25515 | 3923 ft | 210 kts | 228° |
| 2026-04-17 13:46 | 53.75207 | 10.23613 | 3630 ft | 209 kts | 228° |
| 2026-04-17 13:46 | 53.74280 | 10.21716 | 3350 ft | 209 kts | 229° |
| 2026-04-17 13:46 | 53.73348 | 10.19812 | 3070 ft | 212 kts | 227° |
| 2026-04-17 13:46 | 53.72404 | 10.17883 | 2775 ft | 213 kts | 229° |
| 2026-04-17 13:47 | 53.71453 | 10.15943 | 2492 ft | 215 kts | 228° |
| 2026-04-17 13:47 | 53.70496 | 10.13991 | 2195 ft | 217 kts | 229° |
| 2026-04-17 13:47 | 53.69525 | 10.12012 | 1901 ft | 222 kts | 229° |
| 2026-04-17 13:47 | 53.68537 | 10.09999 | 1588 ft | 220 kts | 228° |
| 2026-04-17 13:48 | 53.67584 | 10.08059 | 1300 ft | 210 kts | 228° |
| 2026-04-17 13:48 | 53.66688 | 10.06233 | 1049 ft | 194 kts | 226° |
| 2026-04-17 13:48 | 53.65856 | 10.04542 | 794 ft | 181 kts | 227° |
| 2026-04-17 13:48 | 53.65085 | 10.02958 | 573 ft | 168 kts | 228° |
| 2026-04-17 13:49 | 53.64353 | 10.01478 | 330 ft | 160 kts | 227° |
| 2026-04-17 13:49 | 53.63656 | 10.00075 | 117 ft | 153 kts | 227° |
| 2026-04-17 13:49 | 53.63002 | 9.98755 | 51 ft | 133 kts | 230° |
| 2026-04-17 13:49 | 53.62606 | 9.97955 | 52 ft | 44 kts | 230° |
| 2026-04-17 13:50 | 53.62490 | 9.97770 | 50 ft | 14 kts | 181° |
| 2026-04-17 13:50 | 53.62425 | 9.97880 | 51 ft | 14 kts | 103° |
| 2026-04-17 13:50 | 53.62447 | 9.98056 | 51 ft | 17 kts | 65° |
| 2026-04-17 13:50 | 53.62522 | 9.98220 | 51 ft | 19 kts | 50° |
| 2026-04-17 13:51 | 53.62611 | 9.98399 | 51 ft | 21 kts | 50° |
| 2026-04-17 13:51 | 53.62708 | 9.98593 | 51 ft | 21 kts | 50° |
| 2026-04-17 13:51 | 53.62796 | 9.98772 | 51 ft | 19 kts | 51° |
| 2026-04-17 13:51 | 53.62885 | 9.98951 | 51 ft | 21 kts | 49° |
| 2026-04-17 13:52 | 53.62983 | 9.99149 | 51 ft | 22 kts | 51° |
| 2026-04-17 13:52 | 53.63052 | 9.99299 | 51 ft | 14 kts | 52° |
| 2026-04-17 13:52 | 53.63118 | 9.99446 | 52 ft | 16 kts | 49° |
| 2026-04-17 13:52 | 53.63193 | 9.99611 | 51 ft | 19 kts | 51° |
| 2026-04-17 13:53 | 53.63275 | 9.99760 | 51 ft | 15 kts | 44° |
| 2026-04-17 13:53 | 53.63350 | 9.99907 | 51 ft | 18 kts | 50° |
| 2026-04-17 13:53 | 53.63424 | 10.00063 | 51 ft | 13 kts | 64° |
| 2026-04-17 13:53 | 53.63371 | 10.00161 | 51 ft | 14 kts | 173° |
| 2026-04-17 13:54 | 53.63216 | 10.00180 | 51 ft | 6 kts | 176° |
| 2026-04-17 13:54 | 53.63175 | 10.00201 | 51 ft | 8 kts | 140° |
| 2026-04-17 13:55 | 53.63168 | 10.00358 | 51 ft | 2 kts | 85° |
| 2026-04-17 13:55 | 53.63168 | 10.00367 | 51 ft | 0 kts | 85° |
| 2026-04-17 13:55 | 53.63169 | 10.00374 | 51 ft | 0 kts | 85° |